createdAt,value
2019-01-06T00:00:20.699Z,5.27
2019-01-06T00:02:55.391Z,2.90
2019-01-06T00:05:29.129Z,3.33
2019-01-06T00:08:02.781Z,3.33
2019-01-06T00:11:37.298Z,8.27
2019-01-06T00:14:11.119Z,8.73
2019-01-06T00:16:50.730Z,9.10
2019-01-06T00:19:27.288Z,4.90
2019-01-06T00:22:59.598Z,6.43
2019-01-06T00:25:33.489Z,5.83
2019-01-06T00:28:09.030Z,5.70
2019-01-06T00:31:01.962Z,5.97
2019-01-06T00:33:35.400Z,11.40
2019-01-06T00:37:07.788Z,3.37
2019-01-06T00:41:49.129Z,4.10
2019-01-06T00:44:36.984Z,6.30
2019-01-06T00:47:13.511Z,4.93
2019-01-06T00:49:47.266Z,7.80
2019-01-06T00:52:20.942Z,4.73
2019-01-06T00:58:12.812Z,4.67
2019-01-06T01:00:47.446Z,4.03
2019-01-06T01:04:18.841Z,6.80
2019-01-06T01:07:09.432Z,4.20
2019-01-06T01:09:43.138Z,6.10
2019-01-06T01:12:17.533Z,5.77
2019-01-06T01:14:51.929Z,6.90
2019-01-06T01:17:31.436Z,6.07
2019-01-06T01:20:04.980Z,4.13
2019-01-06T01:22:39.556Z,4.30
2019-01-06T01:25:13.224Z,5.23
2019-01-06T01:27:46.738Z,7.27
2019-01-06T01:30:29.350Z,7.00
2019-01-06T01:34:01.557Z,6.03
2019-01-06T01:36:39.082Z,3.63
2019-01-06T01:39:15.701Z,4.30
2019-01-06T01:43:55.104Z,7.57
2019-01-06T01:46:27.736Z,6.80
2019-01-06T01:49:01.374Z,4.57
2019-01-06T01:51:37.998Z,4.37
2019-01-06T01:54:10.643Z,3.63
2019-01-06T01:56:48.084Z,7.97
2019-01-06T01:59:21.817Z,7.43
2019-01-06T02:01:55.593Z,7.27
2019-01-06T02:04:29.314Z,7.83
2019-01-06T02:07:02.994Z,3.73
2019-01-06T02:09:38.384Z,7.60
2019-01-06T02:12:25.956Z,8.40
2019-01-06T02:14:59.409Z,7.43
2019-01-06T02:18:34.973Z,5.80
2019-01-06T02:21:08.782Z,12.17
2019-01-06T02:23:42.648Z,6.57
2019-01-06T02:26:16.354Z,7.90
2019-01-06T02:28:50.170Z,4.63
2019-01-06T02:31:27.733Z,4.23
2019-01-06T02:34:01.267Z,4.80
2019-01-06T02:37:32.779Z,12.20
2019-01-06T02:40:08.396Z,4.73
2019-01-06T02:42:42.313Z,4.60
2019-01-06T02:45:16.186Z,10.30
2019-01-06T02:47:50.001Z,5.00
2019-01-06T02:51:25.424Z,5.57
2019-01-06T02:54:00.918Z,4.37
2019-01-06T02:57:38.356Z,2.83
2019-01-06T03:00:12.029Z,3.47
2019-01-06T03:04:48.330Z,5.40
2019-01-06T03:07:57.413Z,13.10
2019-01-06T03:10:31.290Z,5.93
2019-01-06T03:15:51.427Z,6.50
2019-01-06T03:18:27.988Z,4.30
2019-01-06T03:22:01.356Z,6.17
2019-01-06T03:24:35.978Z,10.97
2019-01-06T03:27:10.520Z,5.43
2019-01-06T03:29:44.288Z,7.00
2019-01-06T03:32:17.722Z,7.37
2019-01-06T03:34:58.426Z,5.83
2019-01-06T03:38:03.384Z,5.63
2019-01-06T03:41:37.050Z,4.77
2019-01-06T03:44:19.831Z,8.50
2019-01-06T03:46:56.481Z,3.53
2019-01-06T03:51:38.032Z,6.40
2019-01-06T03:56:15.298Z,4.97
2019-01-06T03:58:48.754Z,3.50
2019-01-06T04:01:22.725Z,6.67
2019-01-06T04:03:56.326Z,4.77
2019-01-06T04:06:29.842Z,5.70
2019-01-06T04:09:03.665Z,4.47
2019-01-06T04:11:37.553Z,5.30
2019-01-06T04:14:17.079Z,3.80
2019-01-06T04:16:54.691Z,3.40
2019-01-06T04:22:22.189Z,5.03
2019-01-06T04:25:57.906Z,4.40
2019-01-06T04:30:34.238Z,9.20
2019-01-06T04:33:07.851Z,8.00
2019-01-06T04:35:41.706Z,11.90
2019-01-06T04:38:50.710Z,5.30
2019-01-06T04:41:26.326Z,4.60
2019-01-06T04:44:00.832Z,2.80
2019-01-06T04:46:39.358Z,2.97
2019-01-06T04:49:13.006Z,6.20
2019-01-06T04:53:55.632Z,7.10
2019-01-06T04:56:29.279Z,4.03
2019-01-06T04:59:03.164Z,3.07
2019-01-06T05:01:37.101Z,10.83
2019-01-06T05:04:25.740Z,5.27
2019-01-06T05:07:03.464Z,4.27
2019-01-06T05:09:37.938Z,5.40
2019-01-06T05:12:12.524Z,3.73
2019-01-06T05:15:48.961Z,5.60
2019-01-06T05:18:22.717Z,4.93
2019-01-06T05:24:43.025Z,4.53
2019-01-06T05:28:16.502Z,4.43
2019-01-06T05:31:48.925Z,5.23
2019-01-06T05:36:27.929Z,4.63
2019-01-06T05:39:00.561Z,6.53
2019-01-06T05:41:33.193Z,4.17
2019-01-06T05:44:05.844Z,6.30
2019-01-06T05:46:39.328Z,2.80
2019-01-06T05:49:18.957Z,4.40
2019-01-06T05:51:54.409Z,1.80
2019-01-06T05:55:27.751Z,3.17
2019-01-06T06:00:06.187Z,2.53
2019-01-06T06:02:41.841Z,2.40
2019-01-06T06:05:15.572Z,4.10
2019-01-06T06:07:52.065Z,2.53
2019-01-06T06:10:25.997Z,6.93
2019-01-06T06:13:03.629Z,3.13
2019-01-06T06:15:43.134Z,7.83
2019-01-06T06:21:02.881Z,4.30
2019-01-06T06:23:39.485Z,9.00
2019-01-06T06:26:43.527Z,3.53
2019-01-06T06:29:23.120Z,2.87
2019-01-06T06:31:56.778Z,6.13
2019-01-06T06:34:30.384Z,2.73
2019-01-06T06:40:07.212Z,2.47
2019-01-06T06:42:39.825Z,6.93
2019-01-06T06:46:18.272Z,2.50
2019-01-06T06:48:54.889Z,3.20
2019-01-06T06:51:29.568Z,7.37
2019-01-06T06:54:03.265Z,2.37
2019-01-06T06:59:23.234Z,5.23
2019-01-06T07:02:17.262Z,5.80
2019-01-06T07:04:55.984Z,2.80
2019-01-06T07:07:29.542Z,2.77
2019-01-06T07:10:17.298Z,2.93
2019-01-06T07:13:22.391Z,2.93
2019-01-06T07:15:58.985Z,3.80
2019-01-06T07:18:32.801Z,3.03
2019-01-06T07:22:07.377Z,3.50
2019-01-06T07:24:37.963Z,2.83
2019-01-06T07:27:11.837Z,3.70
2019-01-06T07:33:44.213Z,3.63
2019-01-06T07:36:23.757Z,2.53
2019-01-06T07:39:01.381Z,4.67
2019-01-06T07:42:03.528Z,2.10
2019-01-06T07:44:44.240Z,6.23
2019-01-06T07:47:48.109Z,2.80
2019-01-06T07:50:20.847Z,9.30
2019-01-06T07:53:00.498Z,3.97
2019-01-06T07:55:34.205Z,2.13
2019-01-06T07:58:13.877Z,3.97
2019-01-06T08:00:53.406Z,5.00
2019-01-06T08:06:27.260Z,4.83
2019-01-06T08:09:00.771Z,4.07
2019-01-06T08:11:34.569Z,2.80
2019-01-06T08:15:08.808Z,3.40
2019-01-06T08:17:42.696Z,4.90
2019-01-06T08:21:18.184Z,4.27
2019-01-06T08:23:52.677Z,7.73
2019-01-06T08:28:34.182Z,3.67
2019-01-06T08:32:06.732Z,10.53
2019-01-06T08:34:40.530Z,4.67
2019-01-06T08:38:11.977Z,3.33
2019-01-06T08:42:52.859Z,6.60
2019-01-06T08:46:28.328Z,3.50
2019-01-06T08:49:01.961Z,4.90
2019-01-06T08:51:35.761Z,4.97
2019-01-06T08:54:09.491Z,3.67
2019-01-06T08:57:41.103Z,4.77
2019-01-06T09:00:14.868Z,7.83
2019-01-06T09:02:48.458Z,4.77
2019-01-06T09:05:24.111Z,8.33
2019-01-06T09:09:02.049Z,5.80
2019-01-06T09:11:35.949Z,5.20
2019-01-06T09:14:09.582Z,6.87
2019-01-06T09:16:48.099Z,6.53
2019-01-06T09:19:21.852Z,4.63
2019-01-06T09:21:55.610Z,5.27
2019-01-06T09:24:29.499Z,6.77
2019-01-06T09:27:03.292Z,9.93
2019-01-06T09:35:31.073Z,7.07
2019-01-06T09:38:06.897Z,5.93
2019-01-06T09:41:46.448Z,6.53
2019-01-06T09:44:23.932Z,4.80
2019-01-06T09:47:00.436Z,5.60
2019-01-06T09:49:34.179Z,8.37
2019-01-06T09:54:12.504Z,6.73
2019-01-06T09:56:45.972Z,8.53
2019-01-06T09:59:19.604Z,9.17
2019-01-06T10:01:53.345Z,4.13
2019-01-06T10:06:32.669Z,8.17
2019-01-06T10:09:11.165Z,5.67
2019-01-06T10:13:51.507Z,7.67
2019-01-06T10:16:31.112Z,4.47
2019-01-06T10:19:04.890Z,11.07
2019-01-06T10:21:54.741Z,6.77
2019-01-06T10:24:32.393Z,10.97
2019-01-06T10:27:05.965Z,5.70
2019-01-06T10:29:43.463Z,5.07
2019-01-06T10:32:17.155Z,4.97
2019-01-06T10:34:55.828Z,10.13
2019-01-06T10:37:33.293Z,4.63
2019-01-06T10:40:14.830Z,4.10
2019-01-06T10:42:48.513Z,4.33
2019-01-06T10:45:25.026Z,6.10
2019-01-06T10:49:04.382Z,4.97
2019-01-06T10:51:38.017Z,4.77
2019-01-06T10:54:11.529Z,4.27
2019-01-06T10:56:45.120Z,4.10
2019-01-06T10:59:51.059Z,6.90
2019-01-06T11:02:29.552Z,9.43
2019-01-06T11:05:02.582Z,5.83
2019-01-06T11:07:39.170Z,4.33
2019-01-06T11:10:14.354Z,5.53
2019-01-06T11:12:48.961Z,7.47
2019-01-06T11:15:26.613Z,3.07
2019-01-06T11:18:01.257Z,4.03
2019-01-06T11:20:34.855Z,5.13
2019-01-06T11:23:12.566Z,7.33
2019-01-06T11:25:46.296Z,4.47
2019-01-06T11:29:18.599Z,6.20
2019-01-06T11:31:52.434Z,7.67
2019-01-06T11:34:26.130Z,4.40
2019-01-06T11:41:58.234Z,5.53
2019-01-06T11:47:36.469Z,7.90
2019-01-06T12:21:30.431Z,7.33
2019-01-06T12:24:03.916Z,8.13
2019-01-06T12:26:40.249Z,8.23
2019-01-06T12:29:13.737Z,8.30
2019-01-06T12:33:53.043Z,9.53
2019-01-06T12:36:27.347Z,12.63
2019-01-06T12:39:06.779Z,7.67
2019-01-06T12:42:39.843Z,5.97
2019-01-06T12:45:33.444Z,7.40
2019-01-06T12:48:06.942Z,11.23
2019-01-06T12:50:46.281Z,9.73
2019-01-06T12:53:19.564Z,7.70
2019-01-06T12:57:55.841Z,7.27
2019-01-06T13:01:27.202Z,7.50
2019-01-06T13:04:03.617Z,9.03
2019-01-06T13:07:39.720Z,6.90
2019-01-06T13:10:13.260Z,8.83
2019-01-06T13:12:48.063Z,11.10
2019-01-06T13:15:21.690Z,7.00
2019-01-06T13:20:03.897Z,10.10
2019-01-06T13:22:37.419Z,6.20
2019-01-06T13:26:14.654Z,9.40
2019-01-06T13:28:48.225Z,7.93
2019-01-06T13:31:21.721Z,7.77
2019-01-06T13:33:55.384Z,7.33
2019-01-06T13:36:33.846Z,5.77
2019-01-06T13:45:03.479Z,8.57
2019-01-06T13:48:06.469Z,7.50
2019-01-06T13:50:46.087Z,8.83
2019-01-06T13:54:20.481Z,6.13
2019-01-06T13:58:56.864Z,7.40
2019-01-06T14:02:32.325Z,7.93
2019-01-06T14:05:26.078Z,7.83
2019-01-06T14:07:59.870Z,6.80
2019-01-06T14:10:36.374Z,6.80
2019-01-06T14:13:18.081Z,7.27
2019-01-06T14:15:51.753Z,9.47
2019-01-06T14:18:43.569Z,6.30
2019-01-06T14:21:19.055Z,7.37
2019-01-06T14:23:52.668Z,5.87
2019-01-06T14:26:29.302Z,5.73
2019-01-06T14:29:07.846Z,9.70
2019-01-06T14:33:44.802Z,7.87
2019-01-06T14:36:18.568Z,6.20
2019-01-06T14:38:52.350Z,7.40
2019-01-06T14:41:26.869Z,9.23
2019-01-06T14:44:00.522Z,7.53
2019-01-06T14:46:34.307Z,8.47
2019-01-06T14:49:10.892Z,9.13
2019-01-06T14:51:44.648Z,10.60
2019-01-06T14:54:23.163Z,7.03
2019-01-06T14:57:58.402Z,7.90
2019-01-06T15:00:34.022Z,6.80
2019-01-06T15:05:11.279Z,7.33
2019-01-06T15:07:45.184Z,6.97
2019-01-06T15:10:19.480Z,10.00
2019-01-06T15:12:53.179Z,12.47
2019-01-06T15:15:27.054Z,8.97
2019-01-06T15:19:04.456Z,16.07
2019-01-06T15:21:40.145Z,10.30
2019-01-06T15:24:17.769Z,6.97
2019-01-06T15:26:50.399Z,6.27
2019-01-06T15:29:26.885Z,7.30
2019-01-06T15:32:00.570Z,6.77
2019-01-06T15:34:34.233Z,13.20
2019-01-06T15:39:15.526Z,8.50
2019-01-06T15:41:49.199Z,5.47
2019-01-06T15:45:28.709Z,6.67
2019-01-06T15:48:05.214Z,7.87
2019-01-06T15:50:39.045Z,9.63
2019-01-06T15:54:12.518Z,10.37
2019-01-06T15:57:54.676Z,10.83
2019-01-06T16:00:28.539Z,6.77
2019-01-06T16:03:06.134Z,7.73
2019-01-06T16:05:41.525Z,5.87
2019-01-06T16:09:18.704Z,10.60
2019-01-06T16:12:58.478Z,7.10
2019-01-06T16:15:32.324Z,6.27
2019-01-06T16:18:06.222Z,8.20
2019-01-06T16:22:45.650Z,6.80
2019-01-06T16:25:27.341Z,6.37
2019-01-06T16:28:58.486Z,11.20
2019-01-06T16:32:35.002Z,5.87
2019-01-06T16:35:11.664Z,11.37
2019-01-06T16:37:45.340Z,7.67
2019-01-06T16:40:24.877Z,12.00
2019-01-06T16:42:58.501Z,10.83
2019-01-06T16:46:01.506Z,6.87
2019-01-06T16:48:43.477Z,10.93
2019-01-06T16:51:17.325Z,10.23
2019-01-06T16:53:51.069Z,9.43
2019-01-06T16:56:24.806Z,11.10
2019-01-06T17:01:01.007Z,10.20
2019-01-06T17:03:34.906Z,8.50
2019-01-06T17:06:08.370Z,8.97
2019-01-06T17:09:44.997Z,8.93
2019-01-06T17:13:16.323Z,10.07
2019-01-06T17:17:57.759Z,13.80
2019-01-06T17:22:34.001Z,19.53
2019-01-06T17:25:07.816Z,11.70
2019-01-06T17:28:42.315Z,11.67
2019-01-06T17:31:17.027Z,10.47
2019-01-06T17:33:53.497Z,13.10
2019-01-06T17:36:27.277Z,15.77
2019-01-06T17:41:07.590Z,14.60
2019-01-06T17:44:13.637Z,13.40
2019-01-06T17:46:53.330Z,13.57
2019-01-06T17:49:25.976Z,11.63
2019-01-06T17:52:07.581Z,10.67
2019-01-06T17:55:11.723Z,9.23
2019-01-06T17:58:49.092Z,11.53
2019-01-06T18:01:22.908Z,10.63
2019-01-06T18:04:03.473Z,9.10
2019-01-06T18:06:38.991Z,9.77
2019-01-06T18:12:03.157Z,9.13
2019-01-06T18:14:42.842Z,12.13
2019-01-06T18:18:18.408Z,11.23
2019-01-06T18:21:53.809Z,12.10
2019-01-06T18:24:33.337Z,11.07
2019-01-06T18:27:07.081Z,10.27
2019-01-06T18:29:43.598Z,11.83
2019-01-06T18:34:20.912Z,13.33
2019-01-06T18:36:54.762Z,11.53
2019-01-06T18:39:58.755Z,10.60
2019-01-06T18:42:32.538Z,10.47
2019-01-06T18:45:24.364Z,10.90
2019-01-06T18:48:56.933Z,10.90
2019-01-06T18:51:33.505Z,11.47
2019-01-06T18:54:06.161Z,12.83
2019-01-06T18:58:45.382Z,10.93
2019-01-06T19:01:19.141Z,11.13
2019-01-06T19:03:52.726Z,10.87
2019-01-06T19:06:58.705Z,12.20
2019-01-06T19:17:57.644Z,11.70
2019-01-06T19:23:22.486Z,14.27
2019-01-06T19:25:56.236Z,14.27
2019-01-06T19:28:29.736Z,16.50
2019-01-06T19:32:01.988Z,15.03
2019-01-06T19:34:35.808Z,16.43
2019-01-06T19:37:09.769Z,19.70
2019-01-06T19:39:43.456Z,15.47
2019-01-06T19:42:19.505Z,16.33
2019-01-06T19:47:00.617Z,17.13
2019-01-06T19:49:40.571Z,24.93
2019-01-06T19:52:13.759Z,17.70
2019-01-06T19:54:49.549Z,16.83
2019-01-06T19:57:22.405Z,17.23
2019-01-06T20:00:12.127Z,17.50
2019-01-06T20:02:49.725Z,20.37
2019-01-06T20:05:23.549Z,19.47
2019-01-06T20:07:59.151Z,18.23
2019-01-06T20:10:33.838Z,18.13
2019-01-06T20:13:09.213Z,18.83
2019-01-06T20:15:46.779Z,17.07
2019-01-06T20:18:27.547Z,17.43
2019-01-06T20:23:06.164Z,17.50
2019-01-06T20:25:55.083Z,17.63
2019-01-06T20:28:33.149Z,17.20
2019-01-06T20:31:07.035Z,17.63
2019-01-06T20:33:42.677Z,20.50
2019-01-06T20:36:15.311Z,17.87
2019-01-06T20:39:00.161Z,18.17
2019-01-06T20:42:34.389Z,20.50
2019-01-06T20:46:05.861Z,18.90
2019-01-06T20:48:39.641Z,18.23
2019-01-06T20:53:15.899Z,18.10
2019-01-06T20:57:54.503Z,17.90
2019-01-06T21:00:31.225Z,16.43
2019-01-06T21:03:05.069Z,15.23
2019-01-06T21:05:39.607Z,15.17
2019-01-06T21:08:13.266Z,16.80
2019-01-06T21:10:48.750Z,17.87
2019-01-06T21:13:22.422Z,15.77
2019-01-06T21:15:56.372Z,16.03
2019-01-06T21:18:36.947Z,17.23
2019-01-06T21:21:15.645Z,16.77
2019-01-06T21:23:49.358Z,17.30
2019-01-06T21:28:26.833Z,21.67
2019-01-06T21:30:59.507Z,16.70
2019-01-06T21:33:34.975Z,19.97
2019-01-06T21:36:12.474Z,26.13
2019-01-06T21:38:48.999Z,30.63
2019-01-06T21:41:21.602Z,27.97
2019-01-06T21:43:57.176Z,22.60
2019-01-06T21:46:31.047Z,21.73
2019-01-06T21:49:03.665Z,20.87
2019-01-06T21:51:36.336Z,22.77
2019-01-06T21:54:10.144Z,27.70
2019-01-06T21:59:29.141Z,27.20
2019-01-06T22:02:03.541Z,22.60
2019-01-06T22:05:38.112Z,20.67
2019-01-06T22:10:18.523Z,19.80
2019-01-06T22:13:04.102Z,21.53
2019-01-06T22:15:40.628Z,22.37
2019-01-06T22:18:24.225Z,22.90
2019-01-06T22:20:58.730Z,22.07
2019-01-06T22:23:48.491Z,25.37
2019-01-06T22:29:46.546Z,22.37
2019-01-06T22:32:19.205Z,25.83
2019-01-06T22:34:57.797Z,20.33
2019-01-06T22:37:33.403Z,19.23
2019-01-06T22:40:07.073Z,20.73
2019-01-06T22:42:43.688Z,20.90
2019-01-06T22:45:32.691Z,23.13
2019-01-06T22:48:06.374Z,21.17
2019-01-06T22:50:40.219Z,18.80
2019-01-06T22:53:17.717Z,21.50
2019-01-06T23:00:28.767Z,22.17
2019-01-06T23:03:02.401Z,18.47
2019-01-06T23:05:38.970Z,25.07
2019-01-06T23:08:12.661Z,19.77
2019-01-06T23:10:46.558Z,19.63
2019-01-06T23:13:24.123Z,21.80
2019-01-06T23:16:02.850Z,21.03
2019-01-06T23:18:45.594Z,20.40
2019-01-06T23:21:19.435Z,22.10
2019-01-06T23:25:59.333Z,20.73
2019-01-06T23:28:33.127Z,18.50
2019-01-06T23:32:04.583Z,18.67
2019-01-06T23:34:38.141Z,22.47
2019-01-06T23:38:15.416Z,18.43
2019-01-06T23:41:03.036Z,19.80
2019-01-06T23:43:36.937Z,21.00
2019-01-06T23:46:10.666Z,18.80
2019-01-06T23:48:45.075Z,20.13
2019-01-06T23:51:17.708Z,18.83
2019-01-06T23:53:51.512Z,19.63
2019-01-06T23:56:31.235Z,18.50
